Flight Track Log - Related Links

Times and Time Zones

All times are in EDT time to prevent confusion due to time zone crossing. See the NKS416 flight status page for this flight to view local times or setup timezone preferences in your user account.

Time Position Orientation Groundspeed Altitude Reporting Facility
EDT Latitude Longitude Course Direction KTS MPH feet Rate Location/Type
Fri 10:12:59 PM 26.0750 -80.1319 82° East 158 182 1,100  Level Miami Center
Fri 10:14:00 PM 26.0825 -80.0744 82° East 211 243 2,400 1,966 Climbing Miami Center
Fri 10:14:58 PM 26.0928 -79.9961 82° East 264 304 5,000 3,344 Climbing Miami Center
Fri 10:15:01 PM 26.0906 -79.9914 118° Southeast 272 313 5,800 2,656 Climbing Miami Center
Fri 10:15:59 PM 26.1089 -79.9225 73° East 292 336 7,700 2,379 Climbing Miami Center
Fri 10:16:57 PM 26.1481 -79.8425 61° Northeast 292 336 10,400 1,831 Climbing Miami Center
Fri 10:17:57 PM 26.1978 -79.7533 58° Northeast 311 358 11,300 1,415 Climbing Miami Center
Fri 10:19:00 PM 26.2811 -79.6606 45° Northeast 355 409 13,300 1,757 Climbing Miami Center
Fri 10:24:16 PM 26.8409 -79.3102 30° Northeast 451 519 22,400 1,547 Climbing FlightAware ADS-B
Fri 10:25:51 PM 27.0188 -79.1978 30° Northeast 474 545 23,900 1,103 Climbing FlightAware ADS-B
Fri 10:27:21 PM 27.1946 -79.0867 30° Northeast 476 548 25,800 1,438 Climbing FlightAware ADS-B
Fri 10:27:52 PM 27.2506 -79.0510 30° Northeast 469 540 26,800 1,606 Climbing FlightAware ADS-B
Fri 10:28:32 PM 27.3254 -79.0037 29° Northeast 465 535 27,700 1,521 Climbing FlightAware ADS-B
Fri 10:29:03 PM 27.3881 -78.9730 17° North 449 517 28,600 1,521 Climbing FlightAware ADS-B
Fri 10:29:43 PM 27.4669 -78.9594 North 437 503 29,500 1,200 Climbing FlightAware ADS-B
Fri 10:30:13 PM 27.5306 -78.9497 North 439 505 30,000 1,385 Climbing FlightAware ADS-B
Fri 10:31:14 PM 27.6493 -78.9317 North 429 494 31,600 1,514 Climbing FlightAware ADS-B
Fri 10:32:04 PM 27.7490 -78.9170 North 420 483 32,800 963 Climbing FlightAware ADS-B
Fri 10:32:35 PM 27.8097 -78.9083 North 431 496 32,900 1,157 Climbing FlightAware ADS-B
Fri 10:33:27 PM 27.9095 -78.8933 North 416 479 34,400 1,385 Climbing FlightAware ADS-B
Fri 10:34:06 PM 27.9796 -78.8826 North 408 470 35,000 514 Climbing FlightAware ADS-B
Fri 10:34:37 PM 28.0378 -78.8742 North 418 481 35,000  Level FlightAware ADS-B
Fri 10:35:17 PM 28.1197 -78.8625 North 432 497 35,000  Level FlightAware ADS-B
Fri 10:35:47 PM 28.1838 -78.8535 North 443 510 35,000  Level FlightAware ADS-B
Fri 10:36:26 PM 28.2568 -78.8425 North 450 518 35,000  Level FlightAware ADS-B
Fri 10:37:42 PM 28.4161 -78.8179 North 447 514 35,000  Level FlightAware ADS-B
Fri 10:41:20 PM 28.8682 -78.7503 North 453 521 35,000  Level FlightAware ADS-B
Fri 10:42:30 PM 29.0069 -78.7308 North 445 512 35,000  Level Jacksonville Center
Fri 10:43:30 PM 29.1292 -78.7092 North 445 512 35,000  Level Jacksonville Center
Fri 10:44:30 PM 29.2500 -78.6992 North 450 518 35,000  Level Jacksonville Center
Fri 10:45:30 PM 29.3681 -78.6728 11° North 446 513 35,000  Level Jacksonville Center
Fri 10:46:30 PM 29.5031 -78.6503 North 448 516 35,000  Level Jacksonville Center
Fri 10:47:30 PM 29.6339 -78.6350 North 445 512 35,000  Level Jacksonville Center
Fri 10:48:30 PM 29.7564 -78.6178 North 447 514 35,000  Level Jacksonville Center
Fri 10:49:30 PM 29.8789 -78.5956 North 447 514 35,000  Level Jacksonville Center
Fri 10:50:30 PM 29.9992 -78.5733 North 445 512 35,000  Level Jacksonville Center
Fri 10:51:30 PM 30.1281 -78.5581 North 445 512 35,000 -50 Level Jacksonville Center
Fri 10:52:30 PM 30.2506 -78.5406 North 445 512 34,900  Descending Jacksonville Center
Fri 10:53:30 PM 30.3753 -78.5228 North 446 513 35,000  Climbing Jacksonville Center
Fri 10:54:30 PM 30.4997 -78.5028 North 453 521 34,900 -50 Descending Jacksonville Center
Fri 10:55:30 PM 30.6222 -78.4825 North 444 511 34,900 50 Level Jacksonville Center
Fri 10:56:30 PM 30.7428 -78.4625 North 437 503 35,000 50 Climbing Jacksonville Center
Fri 10:57:30 PM 30.8714 -78.4444 North 445 512 35,000 -50 Level Jacksonville Center
Fri 10:58:30 PM 30.9919 -78.4242 North 445 512 34,900  Descending Jacksonville Center
Fri 10:59:30 PM 31.1058 -78.4042 North 445 512 35,000 50 Climbing Jacksonville Center
Fri 11:00:30 PM 31.2203 -78.3939 North 432 497 35,000  Level Jacksonville Center
Fri 11:01:30 PM 31.3406 -78.3686 10° North 426 490 35,000  Level Jacksonville Center
Fri 11:02:30 PM 31.4547 -78.3508 North 421 484 35,000  Level Jacksonville Center
Fri 11:03:30 PM 31.5711 -78.3356 North 418 481 35,000  Level Jacksonville Center
Fri 11:04:30 PM 31.6997 -78.3119 North 423 487 35,000  Level Jacksonville Center
Fri 11:05:30 PM 31.8158 -78.2942 North 418 481 35,000 -50 Level Jacksonville Center
Fri 11:06:30 PM 31.9322 -78.2761 North 423 487 34,900  Descending Jacksonville Center
Fri 11:07:30 PM 32.0464 -78.2581 North 423 487 35,000 50 Climbing Jacksonville Center
Fri 11:08:30 PM 32.1375 -78.2436 North 423 487 35,000  Level Jacksonville Center
Fri 11:09:30 PM 32.2661 -78.2200 North 423 487 35,000  Level Jacksonville Center
Fri 11:10:30 PM 32.3822 -78.1967 10° North 423 487 35,000 -50 Level Jacksonville Center
Fri 11:11:30 PM 32.4983 -78.1808 North 423 487 34,900 -50 Descending Jacksonville Center
Fri 11:12:30 PM 32.6167 -78.1625 North 423 487 34,900 33 Level Jacksonville Center
Fri 11:14:31 PM 32.8497 -78.1222 North 428 493 35,000  Climbing Washington Center
Fri 11:15:32 PM 32.9647 -78.1033 North 428 493 34,900 -50 Descending Washington Center
Fri 11:16:32 PM 33.0842 -78.0869 North 428 493 34,900 50 Level Washington Center
Fri 11:17:31 PM 33.2014 -78.0681 North 428 493 35,000 50 Climbing Washington Center
Fri 11:18:32 PM 33.3164 -78.0467 North 428 493 35,000  Level Washington Center
Fri 11:19:33 PM 33.4358 -78.0278 North 428 493 35,000  Level Washington Center
Fri 11:20:31 PM 33.5528 -78.0086 North 428 493 35,000 -50 Level Washington Center
Fri 11:21:32 PM 33.6700 -77.9897 North 428 493 34,900  Descending Washington Center
Fri 11:22:33 PM 33.7872 -77.9706 North 428 493 35,000  Climbing Washington Center
Fri 11:23:31 PM 33.9192 -77.9492 North 428 493 34,900  Descending Washington Center
Fri 11:24:33 PM 34.0322 -77.9300 North 433 498 35,000 50 Climbing Washington Center
Fri 11:25:32 PM 34.1517 -77.9056 10° North 433 498 35,000  Level Washington Center
Fri 11:26:31 PM 34.2897 -77.8869 North 438 504 35,000  Level Washington Center
Fri 11:27:32 PM 34.4108 -77.8753 North 443 510 35,000  Level Washington Center
Fri 11:28:31 PM 34.5319 -77.8761 360° North 443 510 35,000  Level Washington Center
Fri 11:34:21 PM 35.2245 -77.9506 354° North 434 499 35,000  Level FlightAware ADS-B
Fri 11:36:22 PM 35.4658 -77.9786 354° North 424 488 35,000  Level FlightAware ADS-B
Fri 11:37:02 PM 35.5443 -77.9877 354° North 424 488 35,000  Level FlightAware ADS-B
Fri 11:37:42 PM 35.6233 -77.9967 354° North 425 489 35,000  Level FlightAware ADS-B
Fri 11:38:22 PM 35.6903 -78.0045 354° North 425 489 35,000  Level FlightAware ADS-B
Fri 11:39:02 PM 35.7486 -78.0112 354° North 425 489 35,000  Level FlightAware ADS-B
Fri 11:39:42 PM 35.8280 -78.0206 354° North 426 490 35,000  Level FlightAware ADS-B
Fri 11:40:22 PM 35.9361 -78.0331 354° North 427 491 35,000  Level FlightAware ADS-B
Fri 11:41:33 PM 36.0600 -78.0483 354° North 423 487 35,000  Level Washington Center
Fri 11:42:33 PM 36.1806 -78.0625 355° North 423 487 35,000  Level Washington Center
Fri 11:43:31 PM 36.2994 -78.0764 355° North 423 487 35,000  Level Washington Center
Fri 11:44:33 PM 36.4283 -78.0908 355° North 416 479 35,000  Level Washington Center
Fri 11:45:31 PM 36.5511 -78.1078 354° North 421 484 35,000  Level Washington Center
Fri 11:46:31 PM 36.6697 -78.1194 355° North 426 490 35,000  Level Washington Center
Fri 11:47:31 PM 36.7906 -78.1361 354° North 426 490 35,000  Level Washington Center
Fri 11:48:32 PM 36.9111 -78.1506 355° North 426 490 35,000  Level Washington Center
Fri 11:49:32 PM 37.0381 -78.1625 356° North 437 503 35,000  Level Washington Center
Fri 11:50:31 PM 37.1567 -78.1769 354° North 437 503 35,000  Level Washington Center
Fri 11:51:31 PM 37.2669 -78.1886 355° North 444 511 35,000  Level Washington Center
Fri 11:59:27 PM 38.2156 -78.3961 357° North 397 457 35,000  Level Cleveland Center
Sat 12:00:00 AM 38.2398 -78.3006 356° North  Level FlightAware Approximate
Sat 12:00:28 AM 38.3400 -78.4083 356° North 442 509 35,000  Level Cleveland Center
Sat 12:01:00 AM 38.3546 -78.3121 356° North  Level FlightAware Approximate
Sat 12:01:28 AM 38.4636 -78.4236 354° North 444 511 35,000  Level Cleveland Center
Sat 12:02:00 AM 38.4626 -78.3651 339° North  Level FlightAware Approximate
Sat 12:02:29 AM 38.5872 -78.4353 356° North 444 511 35,000  Level Cleveland Center
Sat 12:03:00 AM 38.5787 -78.4035 357° North  Level FlightAware Approximate
Sat 12:03:29 AM 38.7125 -78.4494 355° North 446 513 35,000  Level Cleveland Center
Sat 12:04:00 AM 38.6942 -78.4124 357° North  Level FlightAware Approximate
Sat 12:04:30 AM 38.8353 -78.4631 355° North 444 511 35,000  Level Cleveland Center
Sat 12:05:30 AM 38.9603 -78.4761 355° North 445 512 35,000  Level Cleveland Center
Sat 12:06:31 AM 39.0853 -78.4903 355° North 445 512 35,000  Level Cleveland Center
Sat 12:07:31 AM 39.2117 -78.5031 356° North 448 516 35,000  Level Cleveland Center
Sat 12:09:41 AM 39.4910 -78.5339 355° North 453 521 35,000  Level FlightAware ADS-B (KWWD)
Sat 12:10:33 AM 39.5886 -78.5456 355° North 450 518 35,000  Level Cleveland Center
Sat 12:11:33 AM 39.7175 -78.5592 355° North 458 527 35,000  Level Cleveland Center
Sat 12:12:33 AM 39.8294 -78.5706 356° North 460 529 35,000  Level Cleveland Center
Sat 12:13:34 AM 39.9550 -78.5864 354° North 459 528 35,000  Level Cleveland Center
Sat 12:19:20 AM 40.7236 -78.6736 355° North 471 542 35,000  Level FlightAware ADS-B (CYYZ)
Sat 12:19:49 AM 40.7794 -78.6800 355° North 470 541 35,000  Level FlightAware ADS-B (CYYZ)
Sat 12:20:17 AM 40.8450 -78.6877 355° North 471 542 35,000  Level FlightAware ADS-B (CYYZ)
Sat 12:20:40 AM 40.8543 -78.6888 355° North 471 542 35,000 -571 Level FlightAware ADS-B (CYYZ)
Sat 12:22:23 AM 41.1138 -78.7190 355° North 479 551 33,800 -836 Descending FlightAware ADS-B (CYYZ)
Sat 12:23:25 AM 41.2568 -78.7356 356° North 477 549 32,700 -1,055 Descending FlightAware ADS-B (CYYZ)
Sat 12:23:54 AM 41.3196 -78.7430 355° North 470 541 32,200 -1,119 Descending FlightAware ADS-B (CYYZ)
Sat 12:24:24 AM 41.3816 -78.7503 355° North 473 544 31,600 -1,082 Descending FlightAware ADS-B (CYYZ)
Sat 12:24:55 AM 41.4487 -78.7579 355° North 477 549 31,100 -1,100 Descending FlightAware ADS-B (CYYZ)
Sat 12:25:24 AM 41.5202 -78.7665 355° North 481 554 30,500 -1,119 Descending FlightAware ADS-B (CYYZ)
Sat 12:25:54 AM 41.5864 -78.7743 355° North 483 556 30,000 -1,000 Descending FlightAware ADS-B (CYYZ)
Sat 12:26:24 AM 41.6525 -78.7824 355° North 486 559 29,500 -1,100 Descending FlightAware ADS-B (CYYZ)
Sat 12:26:54 AM 41.7197 -78.7905 356° North 487 560 28,900 -1,400 Descending FlightAware ADS-B (CYYZ)
Sat 12:27:24 AM 41.7889 -78.7985 355° North 488 562 28,100 -1,900 Descending FlightAware ADS-B (CYYZ)
Sat 12:27:54 AM 41.8527 -78.8061 355° North 482 555 27,000 -2,600 Descending FlightAware ADS-B (CYYZ)
Sat 12:28:24 AM 41.9147 -78.8134 355° North 477 549 25,500 -2,900 Descending FlightAware ADS-B (CYYZ)
Sat 12:28:54 AM 41.9865 -78.8220 355° North 466 536 24,100 -2,800 Descending FlightAware ADS-B (CYYZ)
Sat 12:29:24 AM 42.0496 -78.8296 355° North 457 526 22,700 -2,900 Descending FlightAware ADS-B (CYYZ)
Sat 12:29:54 AM 42.1120 -78.8371 355° North 450 518 21,200 -3,100 Descending FlightAware ADS-B (CYYZ)
Sat 12:30:24 AM 42.1751 -78.8447 355° North 444 511 19,600 -2,951 Descending FlightAware ADS-B (CYYZ)
Sat 12:30:55 AM 42.2355 -78.8521 355° North 438 504 18,200 -2,754 Descending FlightAware ADS-B (CYYZ)
Sat 12:31:25 AM 42.2959 -78.8594 355° North 429 494 16,800 -2,939 Descending FlightAware ADS-B (CYYZ)
Sat 12:31:44 AM 42.3346 -78.8625 North 433 498 15,800 -3,103 Descending FlightAware ADS-B (CYYZ)
Sat 12:31:54 AM 42.3523 -78.8594 11° North 444 511 15,300 -2,780 Descending FlightAware ADS-B (CYYZ)
Sat 12:32:25 AM 42.4129 -78.8309 20° North 443 510 13,900 -2,600 Descending FlightAware ADS-B (CYYZ)
Sat 12:32:54 AM 42.4690 -78.8018 21° North 436 502 12,700 -2,034 Descending FlightAware ADS-B (CYYZ)
Sat 12:33:24 AM 42.5248 -78.7705 22° Northeast 415 478 11,900 -1,300 Descending FlightAware ADS-B (CYYZ)
Sat 12:33:54 AM 42.5736 -78.7426 23° Northeast 388 447 11,400 -885 Descending FlightAware ADS-B (CYYZ)
Sat 12:34:25 AM 42.6225 -78.7142 23° Northeast 360 414 11,000 -700 Descending FlightAware ADS-B (CYYZ)
Sat 12:34:54 AM 42.6678 -78.6873 23° Northeast 338 389 10,700 -1,119 Descending FlightAware ADS-B (CYYZ)
Sat 12:35:24 AM 42.7079 -78.6626 24° Northeast 315 362 9,900 -1,867 Descending FlightAware ADS-B (CYYZ)
Sat 12:35:39 AM 42.7259 -78.6515 24° Northeast 313 360 9,300 -2,400 Descending FlightAware ADS-B (CYYZ)
Sat 12:35:54 AM 42.7456 -78.6392 24° Northeast 312 359 8,700 -2,200 Descending FlightAware ADS-B (CYYZ)
Sat 12:36:09 AM 42.7643 -78.6279 24° Northeast 312 359 8,200 -2,323 Descending FlightAware ADS-B (CYYZ)
Sat 12:36:25 AM 42.7847 -78.6157 23° Northeast 308 354 7,500 -2,250 Descending FlightAware ADS-B (CYYZ)
Sat 12:36:49 AM 42.8167 -78.5969 23° Northeast 305 351 6,700 -2,100 Descending FlightAware ADS-B (CYYZ)
Sat 12:37:05 AM 42.8356 -78.5860 22° Northeast 299 344 6,100 -2,200 Descending FlightAware ADS-B (CYYZ)
Sat 12:37:19 AM 42.8566 -78.5742 22° Northeast 295 339 5,600 -1,929 Descending FlightAware ADS-B (CYYZ)
Sat 12:37:33 AM 42.8728 -78.5655 21° North 291 335 5,200 -476 Descending FlightAware ADS-B (CYYZ)
Sat 12:40:03 AM 43.0440 -78.5957 316° Northwest 234 269 4,300 -305 Descending FlightAware ADS-B (CYYZ)
Sat 12:40:30 AM 43.0617 -78.6195 316° Northwest 231 266 4,300  Level FlightAware ADS-B (CYYZ)
Sat 12:40:49 AM 43.0766 -78.6415 310° West 207 238 4,300  Level FlightAware ADS-B (CYYZ)
Sat 12:40:54 AM 43.0794 -78.6471 305° West 199 229 4,300 -1,636 Level FlightAware ADS-B (CYYZ)
Sat 12:41:44 AM 43.0947 -78.6992 305° West 196 226 2,800 -1,351 Descending Cleveland Center
Sat 12:42:45 AM 43.1097 -78.7656 287° West 179 206 1,800 -545 Descending Cleveland Center
Sat 12:43:45 AM 43.1086 -78.8206 268° West 154 177 1,700 -200 Descending Cleveland Center
Sat 12:44:45 AM 43.1083 -78.8742 270° West 139 160 1,400 -200 Descending Cleveland Center
Sat 12:45:45 AM 43.1081 -78.9197 270° West 136 157 1,300 -100 Descending Cleveland Center

Login

Don't have an account? Register now (free) for customized features, flight alerts, and more!